Time;durP1;ratioP1;P1;durP2;ratioP2;P2;SDS_P1;SDS_P2;PMS_P1;PMS_P2;Temp;Humidity;BMP_temperature;BMP_pressure;BME280_temperature;BME280_humidity;BME280_pressure;Samples;Min_cycle;Max_cycle;Signal;HPM_P1;HPM_P2
2021/11/13 00:00:40;;;;;;;29.47;21.47;;;;;;;3.55;100.00;98137.16;5064000;28;20215;-62
2021/11/13 00:03:07;;;;;;;33.10;22.37;;;;;;;3.54;100.00;98148.50;5060638;28;20583;-62
2021/11/13 00:05:35;;;;;;;31.20;22.13;;;;;;;3.55;100.00;98150.22;5060671;28;20244;-62
2021/11/13 00:08:04;;;;;;;29.00;21.00;;;;;;;3.55;100.00;98146.78;5062755;28;20585;-62
2021/11/13 00:10:31;;;;;;;29.10;21.00;;;;;;;3.55;100.00;98133.72;5063644;28;20261;-62
2021/11/13 00:13:00;;;;;;;28.47;20.47;;;;;;;3.53;100.00;98141.59;5060768;28;20218;-62
2021/11/13 00:15:30;;;;;;;27.23;20.07;;;;;;;3.50;100.00;98135.66;5061553;28;20563;-62
2021/11/13 00:17:57;;;;;;;31.20;22.00;;;;;;;3.45;100.00;98138.47;5064520;28;20207;-62
2021/11/13 00:20:24;;;;;;;28.33;20.50;;;;;;;3.42;100.00;98149.00;5063364;28;20215;-62
2021/11/13 00:22:51;;;;;;;31.33;21.60;;;;;;;3.37;100.00;98143.13;5060431;28;20216;-61
2021/11/13 00:25:19;;;;;;;28.73;21.50;;;;;;;3.33;100.00;98143.31;5061786;28;20594;-62
2021/11/13 00:27:46;;;;;;;31.57;22.50;;;;;;;3.38;100.00;98151.81;5068305;28;20215;-62
2021/11/13 00:30:14;;;;;;;28.33;21.37;;;;;;;3.33;100.00;98152.03;5067263;28;20210;-62
2021/11/13 00:32:41;;;;;;;30.33;20.50;;;;;;;3.31;100.00;98145.97;5062656;28;20669;-61
2021/11/13 00:35:09;;;;;;;28.83;21.23;;;;;;;3.29;100.00;98147.81;5065673;28;20219;-62
2021/11/13 00:37:36;;;;;;;28.70;21.27;;;;;;;3.31;100.00;98151.22;5068222;28;20215;-61
2021/11/13 00:40:04;;;;;;;29.50;21.37;;;;;;;3.30;100.00;98154.75;5066955;28;20592;-61
2021/11/13 00:42:32;;;;;;;30.00;20.97;;;;;;;3.28;100.00;98151.34;5064379;28;20208;-61
2021/11/13 00:44:59;;;;;;;29.27;20.73;;;;;;;3.28;100.00;98155.72;5065476;28;20212;-62
2021/11/13 00:47:25;;;;;;;28.73;20.73;;;;;;;3.22;100.00;98156.81;5067632;28;20231;-62
2021/11/13 00:49:52;;;;;;;28.53;20.80;;;;;;;3.23;100.00;98150.69;5067068;28;20212;-62
2021/11/13 00:52:18;;;;;;;30.00;21.17;;;;;;;3.29;100.00;98147.81;5064363;28;20219;-62
2021/11/13 00:54:45;;;;;;;27.73;21.53;;;;;;;3.31;100.00;98145.97;5064813;28;20223;-62
2021/11/13 00:57:11;;;;;;;28.87;20.53;;;;;;;3.38;100.00;98147.47;5067790;28;20224;-62
2021/11/13 00:59:39;;;;;;;29.57;21.17;;;;;;;3.38;100.00;98142.25;5065686;28;20224;-62
2021/11/13 01:02:07;;;;;;;28.97;21.23;;;;;;;3.38;100.00;98131.78;5059168;28;20208;-62
2021/11/13 01:04:34;;;;;;;28.40;21.73;;;;;;;3.40;100.00;98134.31;5064119;28;20245;-62
2021/11/13 01:07:01;;;;;;;29.83;21.83;;;;;;;3.38;100.00;98137.00;5067562;28;20239;-62
2021/11/13 01:09:27;;;;;;;28.50;21.07;;;;;;;3.35;100.00;98144.97;5067350;28;20215;-62
2021/11/13 01:11:55;;;;;;;30.90;21.57;;;;;;;3.36;100.00;98149.25;5063893;28;20212;-62
2021/11/13 01:14:22;;;;;;;31.13;21.93;;;;;;;3.33;100.00;98154.63;5063928;28;20212;-62
2021/11/13 01:16:49;;;;;;;31.57;23.10;;;;;;;3.26;100.00;98162.75;5067530;28;20211;-62
2021/11/13 01:19:16;;;;;;;31.80;21.70;;;;;;;3.17;100.00;98168.38;5067298;28;20212;-62
2021/11/13 01:21:42;;;;;;;31.33;22.33;;;;;;;3.11;100.00;98185.09;5063474;28;20223;-62
2021/11/13 01:24:10;;;;;;;30.43;22.03;;;;;;;3.08;100.00;98180.00;5063127;28;20212;-62
2021/11/13 01:26:37;;;;;;;34.10;21.73;;;;;;;3.06;100.00;98179.19;5050529;28;20250;-61
2021/11/13 01:29:04;;;;;;;31.87;22.13;;;;;;;2.93;100.00;98180.59;5067439;28;20216;-62
2021/11/13 01:31:32;;;;;;;30.63;21.70;;;;;;;2.91;100.00;98177.19;5060758;28;20678;-62
2021/11/13 01:34:00;;;;;;;32.20;21.37;;;;;;;2.90;100.00;98180.72;5063568;28;20212;-62
2021/11/13 01:36:26;;;;;;;30.77;21.57;;;;;;;2.87;100.00;98196.47;5050613;28;20589;-62
2021/11/13 01:38:54;;;;;;;32.13;22.77;;;;;;;2.90;100.00;98188.56;5066814;28;20207;-62
2021/11/13 01:41:21;;;;;;;31.43;22.20;;;;;;;2.91;100.00;98195.47;5060377;28;20216;-61
2021/11/13 01:43:48;;;;;;;31.17;20.90;;;;;;;2.82;100.00;98192.34;5063119;28;20229;-62
2021/11/13 01:46:15;;;;;;;32.73;21.87;;;;;;;2.84;100.00;98191.41;5066641;28;20270;-62
2021/11/13 01:48:41;;;;;;;27.53;20.00;;;;;;;2.81;100.00;98196.72;5066730;28;20216;-62
2021/11/13 01:51:23;;;;;;;42.60;22.53;;;;;;;2.84;100.00;98185.31;5061456;28;20692;-62
2021/11/13 01:53:52;;;;;;;29.20;20.23;;;;;;;2.80;100.00;98184.56;5064404;28;20208;-62
2021/11/13 01:56:21;;;;;;;28.47;20.27;;;;;;;2.81;100.00;98180.22;5066541;28;20716;-62
2021/11/13 01:58:49;;;;;;;26.80;20.70;;;;;;;2.82;100.00;98171.47;5061889;28;20217;-62
2021/11/13 02:01:16;;;;;;;26.23;19.70;;;;;;;2.86;100.00;98168.69;5059942;28;20590;-62
2021/11/13 02:03:45;;;;;;;26.80;19.67;;;;;;;2.85;100.00;98166.13;5061478;28;20563;-61
2021/11/13 02:06:12;;;;;;;28.20;19.57;;;;;;;2.80;100.00;98160.22;5062857;28;20237;-62
2021/11/13 02:08:42;;;;;;;25.57;18.93;;;;;;;2.79;100.00;98159.41;5059688;28;20688;-62
2021/11/13 02:11:08;;;;;;;28.23;19.53;;;;;;;2.75;100.00;98157.78;5059981;28;20590;-62
2021/11/13 02:13:35;;;;;;;29.43;20.13;;;;;;;2.77;100.00;98158.63;5064777;28;20224;-61
2021/11/13 02:16:02;;;;;;;27.20;19.43;;;;;;;2.74;100.00;98158.72;5066463;28;20218;-62
2021/11/13 02:18:28;;;;;;;28.83;19.90;;;;;;;2.68;100.00;98158.94;5062529;28;20691;-62
2021/11/13 02:20:56;;;;;;;27.20;19.03;;;;;;;2.67;100.00;98170.28;5062310;28;20692;-62
2021/11/13 02:23:26;;;;;;;28.73;19.10;;;;;;;2.67;100.00;98172.03;5064083;28;20216;-62
2021/11/13 02:25:54;;;;;;;29.13;19.07;;;;;;;2.66;100.00;98181.66;5066246;28;20222;-62
2021/11/13 02:28:23;;;;;;;27.73;19.60;;;;;;;2.67;100.00;98175.50;5064037;28;20588;-62
2021/11/13 02:30:53;;;;;;;31.87;21.40;;;;;;;2.72;100.00;98181.41;5062509;28;20243;-62
2021/11/13 02:33:20;;;;;;;28.17;19.30;;;;;;;2.72;100.00;98185.78;5064981;28;20579;-62
2021/11/13 02:35:48;;;;;;;28.33;19.77;;;;;;;2.72;100.00;98181.41;5066057;28;20225;-62
2021/11/13 02:38:19;;;;;;;29.70;19.77;;;;;;;2.75;100.00;98180.44;5063336;28;20211;-62
2021/11/13 02:40:48;;;;;;;28.33;19.50;;;;;;;2.78;100.00;98175.97;5057565;28;20212;-62
2021/11/13 02:43:16;;;;;;;27.53;19.80;;;;;;;2.87;100.00;98180.81;5063715;28;20576;-62
2021/11/13 02:45:44;;;;;;;27.10;19.20;;;;;;;2.89;100.00;98189.44;5065935;28;20568;-62
2021/11/13 02:48:12;;;;;;;28.53;20.40;;;;;;;2.85;100.00;98185.25;5061359;28;20720;-62
2021/11/13 02:50:39;;;;;;;27.83;19.30;;;;;;;2.85;100.00;98177.44;5061562;28;20223;-62
2021/11/13 02:53:12;;;;;;;27.97;18.10;;;;;;;2.89;100.00;98168.56;5065368;28;20222;-62
2021/11/13 02:55:40;;;;;;;27.60;19.67;;;;;;;2.96;100.00;98175.25;5065382;28;20215;-62
2021/11/13 02:58:07;;;;;;;25.17;18.33;;;;;;;2.95;100.00;98163.09;5061762;28;20227;-62
2021/11/13 03:00:34;;;;;;;25.47;18.43;;;;;;;2.93;100.00;98170.16;5061902;28;20216;-62
2021/11/13 03:03:01;;;;;;;26.43;19.07;;;;;;;2.94;100.00;98171.84;5060969;28;20215;-62
2021/11/13 03:05:29;;;;;;;24.43;18.33;;;;;;;2.98;100.00;98173.44;5065425;28;20720;-62
2021/11/13 03:07:58;;;;;;;25.33;17.97;;;;;;;2.99;100.00;98169.91;5061639;28;20239;-62
2021/11/13 03:10:27;;;;;;;27.23;19.20;;;;;;;3.00;100.00;98163.78;5060016;28;20219;-62
2021/11/13 03:12:55;;;;;;;24.13;17.93;;;;;;;2.95;100.00;98167.47;5065319;28;20218;-62
2021/11/13 03:15:23;;;;;;;25.23;18.27;;;;;;;3.00;100.00;98176.84;5064576;28;20242;-62
2021/11/13 03:17:51;;;;;;;26.87;18.27;;;;;;;2.98;100.00;98178.66;5061572;28;20234;-62
2021/11/13 03:20:21;;;;;;;22.87;17.10;;;;;;;2.97;100.00;98174.34;5062190;28;20223;-62
2021/11/13 03:22:49;;;;;;;24.77;17.10;;;;;;;2.97;100.00;98171.75;5064916;28;20696;-62
2021/11/13 03:25:18;;;;;;;25.80;17.83;;;;;;;2.97;100.00;98173.50;5063999;28;20215;-62
2021/11/13 03:27:47;;;;;;;24.20;18.03;;;;;;;2.95;100.00;98168.31;5060914;28;20736;-62
2021/11/13 03:30:16;;;;;;;23.27;16.83;;;;;;;2.96;100.00;98162.22;5062799;28;20219;-62
2021/11/13 03:32:43;;;;;;;24.10;16.80;;;;;;;2.97;100.00;98170.88;5065043;28;20215;-62
2021/11/13 03:35:13;;;;;;;21.87;16.40;;;;;;;2.99;100.00;98159.47;5061431;28;20223;-62
2021/11/13 03:37:39;;;;;;;23.23;17.53;;;;;;;3.02;100.00;98161.97;5060766;28;20219;-62
2021/11/13 03:40:07;;;;;;;23.37;16.97;;;;;;;2.97;100.00;98158.69;5062801;28;20582;-62
2021/11/13 03:42:34;;;;;;;22.27;16.87;;;;;;;2.98;100.00;98173.44;5064881;28;20222;-62
2021/11/13 03:45:01;;;;;;;24.83;18.10;;;;;;;3.01;100.00;98173.31;5063110;28;20219;-62
2021/11/13 03:47:29;;;;;;;24.63;17.67;;;;;;;2.97;100.00;98171.75;5061037;28;20247;-62
2021/11/13 03:49:55;;;;;;;24.87;18.70;;;;;;;3.02;100.00;98155.91;5055903;28;20216;-62
2021/11/13 03:52:22;;;;;;;26.43;17.80;;;;;;;3.07;100.00;98167.00;5064479;28;20212;-62
2021/11/13 03:54:48;;;;;;;27.20;19.50;;;;;;;3.05;100.00;98169.69;5063112;28;20216;-62
2021/11/13 03:57:15;;;;;;;30.87;21.20;;;;;;;3.07;100.00;98165.22;5060742;28;20215;-62
2021/11/13 03:59:41;;;;;;;28.83;19.80;;;;;;;3.06;100.00;98163.53;5061978;28;20220;-62
2021/11/13 04:02:10;;;;;;;30.37;21.13;;;;;;;3.08;100.00;98166.09;5062976;28;20214;-62
2021/11/13 04:04:38;;;;;;;29.10;20.20;;;;;;;3.12;100.00;98154.63;5063113;28;20301;-61
2021/11/13 04:07:05;;;;;;;30.77;20.87;;;;;;;3.10;100.00;98162.53;5060436;28;21405;-62
2021/11/13 04:09:31;;;;;;;29.93;20.33;;;;;;;3.17;100.00;98161.38;5062124;28;20339;-62
2021/11/13 04:12:03;;;;;;;30.90;21.07;;;;;;;3.21;100.00;98164.69;5064355;28;20676;-62
2021/11/13 04:14:30;;;;;;;31.80;20.47;;;;;;;3.19;100.00;98156.91;5062397;28;20665;-62
2021/11/13 04:16:56;;;;;;;28.90;20.70;;;;;;;3.21;100.00;98159.47;5060732;28;20216;-62
2021/11/13 04:19:23;;;;;;;31.43;21.90;;;;;;;3.21;100.00;98147.28;5062057;28;20224;-62
2021/11/13 04:21:50;;;;;;;30.83;21.67;;;;;;;3.24;100.00;98133.25;5064209;28;20701;-61
2021/11/13 04:24:17;;;;;;;32.57;21.87;;;;;;;3.29;100.00;98134.75;5062937;28;20584;-62
2021/11/13 04:26:44;;;;;;;30.90;21.27;;;;;;;3.25;100.00;98133.16;5058528;28;20696;-61
2021/11/13 04:29:10;;;;;;;31.60;21.60;;;;;;;3.28;100.00;98129.59;5061786;28;20592;-62
2021/11/13 04:31:37;;;;;;;30.20;21.43;;;;;;;3.29;100.00;98132.16;5064073;28;20211;-62
2021/11/13 04:34:08;;;;;;;27.87;20.63;;;;;;;3.35;100.00;98124.06;5063414;28;20208;-62
2021/11/13 04:36:37;;;;;;;35.27;23.97;;;;;;;3.30;100.00;98128.63;5060338;28;20859;-62
2021/11/13 04:39:07;;;;;;;32.60;22.67;;;;;;;3.30;100.00;98123.41;5061723;28;20216;-62
2021/11/13 04:41:34;;;;;;;32.17;21.57;;;;;;;3.34;100.00;98114.53;5064243;28;20219;-61
2021/11/13 04:44:01;;;;;;;32.10;22.33;;;;;;;3.34;100.00;98114.53;5062151;28;20212;-62
2021/11/13 04:46:27;;;;;;;35.27;23.93;;;;;;;3.37;100.00;98124.00;5060371;28;20613;-62
2021/11/13 04:48:54;;;;;;;35.13;22.73;;;;;;;3.35;100.00;98121.44;5061851;28;20240;-62
2021/11/13 04:51:20;;;;;;;35.37;22.77;;;;;;;3.35;100.00;98121.44;5063980;28;20220;-62
2021/11/13 04:53:47;;;;;;;35.30;22.97;;;;;;;3.36;100.00;98125.75;5060989;28;20211;-62
2021/11/13 04:56:15;;;;;;;36.30;22.87;;;;;;;3.38;100.00;98126.56;5060416;28;20212;-63
2021/11/13 04:58:41;;;;;;;32.83;21.97;;;;;;;3.39;100.00;98125.66;5061193;28;20212;-62
2021/11/13 05:01:08;;;;;;;34.73;23.60;;;;;;;3.35;100.00;98129.28;5062750;28;20215;-62
2021/11/13 05:03:35;;;;;;;34.03;22.17;;;;;;;3.36;100.00;98136.19;5054835;28;20216;-63
2021/11/13 05:06:02;;;;;;;31.53;20.87;;;;;;;3.38;100.00;98131.78;5060262;28;20209;-63
2021/11/13 05:08:29;;;;;;;32.47;22.10;;;;;;;3.36;100.00;98125.75;5060835;28;20622;-62
2021/11/13 05:10:55;;;;;;;33.07;22.93;;;;;;;3.33;100.00;98123.28;5066447;28;20227;-62
2021/11/13 05:13:23;;;;;;;32.53;21.80;;;;;;;3.31;100.00;98135.53;5065813;28;20212;-62
2021/11/13 05:15:50;;;;;;;30.00;21.90;;;;;;;3.31;100.00;98126.88;5063772;28;20220;-62
2021/11/13 05:18:16;;;;;;;28.77;20.40;;;;;;;3.26;100.00;98127.06;5063307;28;20670;-62
2021/11/13 05:20:42;;;;;;;25.20;18.80;;;;;;;3.27;100.00;98130.50;5066606;28;20230;-62
2021/11/13 05:23:09;;;;;;;27.37;20.00;;;;;;;3.26;100.00;98132.28;5066969;28;20211;-61
2021/11/13 05:25:35;;;;;;;24.23;18.83;;;;;;;3.21;100.00;98134.22;5063761;28;20567;-62
2021/11/13 05:28:02;;;;;;;24.37;19.03;;;;;;;3.18;100.00;98134.34;5063579;28;20239;-61
2021/11/13 05:30:30;;;;;;;24.07;18.70;;;;;;;3.14;100.00;98132.78;5051466;28;20207;-62
2021/11/13 05:32:56;;;;;;;23.27;18.37;;;;;;;3.12;100.00;98134.56;5067281;28;20581;-62
2021/11/13 05:35:24;;;;;;;23.17;18.70;;;;;;;3.07;100.00;98130.47;5060857;28;20216;-62
2021/11/13 05:37:52;;;;;;;23.00;17.53;;;;;;;3.03;100.00;98131.47;5063131;28;20705;-62
2021/11/13 05:40:18;;;;;;;24.20;17.33;;;;;;;3.02;100.00;98130.66;5067056;28;20237;-62
2021/11/13 05:42:45;;;;;;;24.10;18.30;;;;;;;3.06;100.00;98126.16;5066834;28;20204;-62
2021/11/13 05:45:14;;;;;;;21.77;17.17;;;;;;;3.03;100.00;98115.81;5061593;28;20220;-62
2021/11/13 05:47:43;;;;;;;23.93;17.80;;;;;;;3.05;100.00;98127.06;5062758;28;20725;-62
2021/11/13 05:50:12;;;;;;;24.87;18.37;;;;;;;3.04;100.00;98115.75;5051280;28;20631;-62
2021/11/13 05:52:39;;;;;;;22.40;17.83;;;;;;;3.07;100.00;98120.84;5066574;28;20218;-62
2021/11/13 05:55:07;;;;;;;21.70;17.17;;;;;;;3.11;100.00;98114.59;5063144;28;20214;-62
2021/11/13 05:57:33;;;;;;;23.10;17.20;;;;;;;3.16;100.00;98110.06;5062891;28;20227;-61
2021/11/13 05:59:59;;;;;;;21.10;17.03;;;;;;;3.16;100.00;98110.06;5050819;28;20218;-62
2021/11/13 06:02:26;;;;;;;23.17;17.83;;;;;;;3.09;100.00;98108.59;5066566;28;20229;-62
2021/11/13 06:04:54;;;;;;;23.13;17.23;;;;;;;3.16;100.00;98114.41;5059996;28;20240;-62
2021/11/13 06:07:20;;;;;;;23.13;17.80;;;;;;;3.17;100.00;98111.75;5062802;28;20231;-61
2021/11/13 06:09:47;;;;;;;21.73;16.93;;;;;;;3.16;100.00;98115.28;5066625;28;20212;-62
2021/11/13 06:12:13;;;;;;;21.73;16.30;;;;;;;3.19;100.00;98115.13;5065149;28;20563;-62
2021/11/13 06:14:40;;;;;;;21.77;16.83;;;;;;;3.19;100.00;98109.09;5062903;28;20230;-62
2021/11/13 06:17:06;;;;;;;21.27;16.17;;;;;;;3.17;100.00;98101.31;5062570;28;20240;-62
2021/11/13 06:19:33;;;;;;;20.87;16.20;;;;;;;3.19;100.00;98099.47;5062316;28;20217;-61
2021/11/13 06:22:01;;;;;;;20.33;16.07;;;;;;;3.21;100.00;98097.66;5066224;28;20567;-62
2021/11/13 06:24:27;;;;;;;21.30;16.43;;;;;;;3.25;100.00;98098.38;5062944;28;20220;-61
2021/11/13 06:26:54;;;;;;;21.67;16.63;;;;;;;3.24;100.00;98092.31;5062511;28;20224;-61
2021/11/13 06:29:20;;;;;;;18.93;15.50;;;;;;;3.22;100.00;98095.88;5064766;28;20239;-61
2021/11/13 06:31:47;;;;;;;18.00;14.80;;;;;;;3.22;100.00;98094.13;5066211;28;20217;-62
2021/11/13 06:34:13;;;;;;;21.63;16.17;;;;;;;3.21;100.00;98097.66;5063562;28;20211;-62
2021/11/13 06:36:40;;;;;;;17.67;14.63;;;;;;;3.18;100.00;98092.56;5055188;28;20530;-62
2021/11/13 06:39:08;;;;;;;17.93;14.60;;;;;;;3.17;100.00;98098.69;5064502;28;20208;-62
2021/11/13 06:41:35;;;;;;;19.90;16.23;;;;;;;3.14;100.00;98101.44;5065574;28;20211;-62
2021/11/13 06:44:01;;;;;;;20.73;16.13;;;;;;;3.14;100.00;98106.66;5063522;28;20269;-62
2021/11/13 06:46:28;;;;;;;21.83;15.60;;;;;;;3.11;100.00;98101.56;5061810;28;20223;-61
2021/11/13 06:48:55;;;;;;;19.93;16.20;;;;;;;3.09;100.00;98100.78;5063909;28;20235;-62
2021/11/13 06:51:22;;;;;;;22.33;16.70;;;;;;;3.12;100.00;98098.03;5065655;28;20219;-62
2021/11/13 06:53:49;;;;;;;21.00;16.07;;;;;;;3.13;100.00;98097.09;5063367;28;20215;-62
2021/11/13 06:56:17;;;;;;;20.27;15.83;;;;;;;3.17;100.00;98100.47;5061872;28;20220;-62
2021/11/13 06:58:43;;;;;;;19.93;16.40;;;;;;;3.22;100.00;98109.81;5063266;28;20223;-61
2021/11/13 07:01:10;;;;;;;20.83;16.83;;;;;;;3.32;100.00;98099.84;5063791;28;20589;-61
2021/11/13 07:03:36;;;;;;;21.10;16.00;;;;;;;3.38;100.00;98104.81;5059838;28;20215;-62
2021/11/13 07:06:03;;;;;;;20.57;16.43;;;;;;;3.43;100.00;98103.69;5061821;28;20215;-62
2021/11/13 07:08:30;;;;;;;19.53;15.57;;;;;;;3.44;100.00;98097.56;5062827;28;20235;-61
2021/11/13 07:10:56;;;;;;;20.97;15.93;;;;;;;3.46;100.00;98090.53;5065105;28;20222;-62
2021/11/13 07:13:26;;;;;;;18.57;14.60;;;;;;;3.52;100.00;98087.66;5064203;28;20211;-62
2021/11/13 07:15:53;;;;;;;18.93;15.00;;;;;;;3.55;100.00;98097.94;5061452;28;20227;-61
2021/11/13 07:18:20;;;;;;;19.13;15.93;;;;;;;3.54;100.00;98088.41;5062719;28;20238;-62
2021/11/13 07:20:57;;;;;;;17.90;14.83;;;;;;;3.44;100.00;98104.56;5065036;28;20215;-62
2021/11/13 07:23:24;;;;;;;19.13;15.30;;;;;;;3.44;100.00;98096.72;5062362;28;20211;-62
2021/11/13 07:25:51;;;;;;;18.07;14.83;;;;;;;3.36;100.00;98096.19;5061380;28;20215;-62
2021/11/13 07:28:20;;;;;;;18.30;14.57;;;;;;;3.41;100.00;98094.22;5062807;28;20286;-62
2021/11/13 07:30:49;;;;;;;20.07;16.03;;;;;;;3.30;100.00;98112.94;5063838;28;20677;-62
2021/11/13 07:33:16;;;;;;;19.80;14.97;;;;;;;3.25;100.00;98103.63;5060969;28;20220;-61
2021/11/13 07:35:44;;;;;;;17.07;14.53;;;;;;;3.23;100.00;98101.06;5060850;28;20216;-61
2021/11/13 07:38:11;;;;;;;17.93;15.07;;;;;;;3.18;100.00;98102.16;5063778;28;20576;-61
2021/11/13 07:40:38;;;;;;;19.40;15.00;;;;;;;3.18;100.00;98107.38;5064900;28;20219;-61
2021/11/13 07:43:05;;;;;;;20.33;15.67;;;;;;;3.21;100.00;98097.66;5061869;28;20747;-62
2021/11/13 07:45:32;;;;;;;18.77;15.30;;;;;;;3.34;100.00;98106.69;5055447;28;20743;-61
2021/11/13 07:48:00;;;;;;;19.37;14.73;;;;;;;3.41;100.00;98110.75;5063110;28;20235;-62
2021/11/13 07:50:26;;;;;;;17.77;14.60;;;;;;;3.52;100.00;98110.28;5064838;28;20590;-61
2021/11/13 07:52:53;;;;;;;17.20;14.43;;;;;;;3.60;100.00;98106.47;5062203;28;20254;-62
2021/11/13 07:55:20;;;;;;;18.83;13.93;;;;;;;3.71;100.00;98112.09;5059096;28;20232;-61
2021/11/13 07:57:47;;;;;;;18.47;14.50;;;;;;;3.81;100.00;98110.78;5062681;28;20738;-62
2021/11/13 08:00:16;;;;;;;17.63;15.00;;;;;;;3.98;100.00;98118.72;5064763;28;20215;-62
2021/11/13 08:02:43;;;;;;;19.10;15.43;;;;;;;4.12;100.00;98116.38;5061869;28;20674;-62
2021/11/13 08:05:12;;;;;;;16.77;14.03;;;;;;;4.25;100.00;98112.31;5060534;28;20244;-61
2021/11/13 08:07:39;;;;;;;16.97;14.93;;;;;;;4.33;100.00;98115.41;5062817;28;20792;-62
2021/11/13 08:10:08;;;;;;;16.87;14.17;;;;;;;4.45;100.00;98106.19;5064585;28;20220;-62
2021/11/13 08:12:34;;;;;;;16.77;14.17;;;;;;;4.54;100.00;98104.00;5061477;28;20666;-62
2021/11/13 08:15:01;;;;;;;18.17;14.20;;;;;;;4.59;100.00;98104.63;5055249;28;20218;-62
2021/11/13 08:17:27;;;;;;;18.20;15.07;;;;;;;4.64;100.00;98104.44;5063107;28;20217;-62
2021/11/13 08:19:54;;;;;;;15.87;14.00;;;;;;;4.63;100.00;98111.41;5064651;28;20208;-62
2021/11/13 08:22:22;;;;;;;17.10;13.93;;;;;;;4.62;100.00;98112.34;5060608;28;20588;-62
2021/11/13 08:24:48;;;;;;;17.73;13.90;;;;;;;4.57;100.00;98114.31;5060784;28;20223;-62
2021/11/13 08:27:15;;;;;;;17.07;13.67;;;;;;;4.57;100.00;98110.84;5062410;28;20217;-63
2021/11/13 08:29:41;;;;;;;15.57;13.23;;;;;;;4.60;100.00;98114.19;5064308;28;20601;-62
2021/11/13 08:32:08;;;;;;;18.17;14.30;;;;;;;4.65;100.00;98117.41;5062573;28;20213;-62
2021/11/13 08:34:36;;;;;;;16.23;14.20;;;;;;;4.76;100.00;98125.63;5060252;28;20218;-63
2021/11/13 08:37:03;;;;;;;18.20;14.50;;;;;;;4.82;100.00;98130.59;5062225;28;20212;-62
2021/11/13 08:39:34;;;;;;;17.17;14.13;;;;;;;4.89;100.00;98126.75;5064362;28;20212;-63
2021/11/13 08:42:00;;;;;;;17.43;14.40;;;;;;;4.96;100.00;98133.41;5064907;28;20274;-63
2021/11/13 08:44:27;;;;;;;15.87;13.37;;;;;;;4.96;100.00;98122.09;5060251;28;20216;-62
2021/11/13 08:46:55;;;;;;;17.00;14.23;;;;;;;4.99;100.00;98127.19;5061226;28;20217;-62
2021/11/13 08:49:23;;;;;;;16.87;13.23;;;;;;;5.05;100.00;98125.13;5067703;28;20283;-62
2021/11/13 08:51:49;;;;;;;14.27;12.60;;;;;;;5.08;100.00;98132.81;5066099;28;20220;-62
2021/11/13 08:54:16;;;;;;;16.17;13.53;;;;;;;5.10;100.00;98125.75;5064061;28;20676;-62
2021/11/13 08:56:44;;;;;;;16.00;13.30;;;;;;;5.14;100.00;98132.53;5065744;28;20219;-62
2021/11/13 08:59:10;;;;;;;16.73;13.67;;;;;;;5.14;100.00;98143.00;5067586;28;20215;-62
2021/11/13 09:01:37;;;;;;;16.30;13.50;;;;;;;5.14;100.00;98136.94;5062502;28;20210;-62
2021/11/13 09:04:03;;;;;;;14.47;12.80;;;;;;;5.17;100.00;98142.88;5063885;28;20255;-62
2021/11/13 09:06:31;;;;;;;16.17;13.63;;;;;;;5.18;100.00;98144.56;5065038;28;20706;-62
2021/11/13 09:09:00;;;;;;;15.93;13.73;;;;;;;5.19;100.00;98146.28;5067373;28;20240;-62
2021/11/13 09:11:31;;;;;;;16.97;13.43;;;;;;;5.19;100.00;98125.31;5065835;28;20685;-62
2021/11/13 09:14:01;;;;;;;14.87;12.77;;;;;;;5.33;100.00;98116.78;5061904;28;20224;-62
2021/11/13 09:16:28;;;;;;;14.47;12.60;;;;;;;5.52;100.00;98113.22;5066133;28;20581;-62
2021/11/13 09:18:55;;;;;;;17.03;13.30;;;;;;;5.63;100.00;98116.13;5067638;28;20226;-62
2021/11/13 09:21:22;;;;;;;16.67;13.00;;;;;;;5.70;100.00;98112.28;5065240;28;20573;-62
2021/11/13 09:23:49;;;;;;;16.00;13.33;;;;;;;5.80;100.00;98116.16;5063471;28;20263;-62
2021/11/13 09:26:15;;;;;;;16.30;13.43;;;;;;;5.88;100.00;98115.78;5065336;28;20223;-62
2021/11/13 09:28:42;;;;;;;15.93;12.93;;;;;;;5.95;100.00;98104.91;5067136;28;20237;-62
2021/11/13 09:31:10;;;;;;;16.67;13.70;;;;;;;6.08;100.00;98113.84;5065420;28;20213;-62
2021/11/13 09:33:37;;;;;;;15.53;13.93;;;;;;;6.21;100.00;98100.91;5063546;28;20214;-62
2021/11/13 09:36:04;;;;;;;16.57;13.57;;;;;;;6.31;100.00;98100.38;5064921;28;20222;-62
2021/11/13 09:38:33;;;;;;;14.53;12.43;;;;;;;6.40;100.00;98110.38;5062449;28;20217;-63
2021/11/13 09:41:02;;;;;;;15.57;12.97;;;;;;;6.52;100.00;98108.88;5063505;28;20215;-62
2021/11/13 09:43:30;;;;;;;14.27;12.37;;;;;;;6.62;100.00;98102.19;5062641;28;20219;-63
2021/11/13 09:45:59;;;;;;;14.87;12.63;;;;;;;6.79;100.00;98102.97;5065075;28;20696;-63
2021/11/13 09:48:28;;;;;;;15.77;12.87;;;;;;;6.98;100.00;98103.69;5065466;28;20628;-62
2021/11/13 09:50:55;;;;;;;13.83;12.30;;;;;;;7.20;100.00;98105.97;5062385;28;20230;-63
2021/11/13 09:53:25;;;;;;;16.13;12.83;;;;;;;7.40;100.00;98102.09;5057184;28;20220;-62
2021/11/13 09:55:53;;;;;;;13.90;12.37;;;;;;;7.67;100.00;98105.78;5065666;28;20215;-62
2021/11/13 09:58:21;;;;;;;13.33;11.17;;;;;;;7.79;100.00;98102.41;5066641;28;20233;-62
2021/11/13 10:00:47;;;;;;;13.53;10.97;;;;;;;7.83;100.00;98105.75;5063724;28;20215;-61
2021/11/13 10:03:18;;;;;;;12.90;11.30;;;;;;;7.76;100.00;98093.88;5062505;28;20218;-61
2021/11/13 10:05:47;;;;;;;13.93;11.27;;;;;;;7.61;100.00;98092.13;5064094;28;20262;-61
2021/11/13 10:08:13;;;;;;;12.43;11.13;;;;;;;7.45;100.00;98089.53;5066136;28;20229;-61
2021/11/13 10:10:42;;;;;;;14.03;11.57;;;;;;;7.33;100.00;98089.38;5063136;28;20255;-61
2021/11/13 10:13:27;;;;;;;12.53;11.23;;;;;;;7.33;100.00;98089.38;5061275;28;20584;-61
2021/11/13 10:15:56;;;;;;;13.30;11.90;;;;;;;7.37;100.00;98090.91;5054716;28;20210;-62
2021/11/13 10:18:25;;;;;;;12.97;11.63;;;;;;;7.38;100.00;98082.94;5063980;28;20216;-62
2021/11/13 10:21:02;;;;;;;13.73;12.10;;;;;;;7.39;100.00;98083.78;5062321;28;20741;-62
2021/11/13 10:23:36;;;;;;;13.47;11.63;;;;;;;7.34;100.00;98084.06;5066053;28;20222;-62
2021/11/13 10:26:06;;;;;;;12.93;10.97;;;;;;;7.36;100.00;98078.72;5066063;28;20317;-62
2021/11/13 10:28:40;;;;;;;13.00;11.23;;;;;;;7.36;100.00;98081.34;5061449;28;20216;-62
2021/11/13 10:31:10;;;;;;;13.43;12.03;;;;;;;7.40;100.00;98078.44;5061785;28;20216;-62
2021/11/13 10:33:36;;;;;;;13.60;12.13;;;;;;;7.43;100.00;98070.41;5065972;28;20218;-62
2021/11/13 10:36:05;;;;;;;14.30;12.60;;;;;;;7.52;100.00;98074.25;5063046;28;20216;-62
2021/11/13 10:38:33;;;;;;;13.33;11.90;;;;;;;7.57;100.00;98069.56;5061318;28;20219;-63
2021/11/13 10:41:03;;;;;;;13.77;11.97;;;;;;;7.62;100.00;98070.16;5064149;28;20369;-63
2021/11/13 10:43:38;;;;;;;14.33;12.57;;;;;;;7.68;100.00;98065.41;5064896;28;20210;-62
2021/11/13 10:46:06;;;;;;;14.03;11.97;;;;;;;7.72;100.00;98060.81;5062255;28;20215;-62
2021/11/13 10:48:36;;;;;;;16.37;12.23;;;;;;;7.77;100.00;98069.28;5061437;28;20223;-62
2021/11/13 10:51:10;;;;;;;14.27;12.10;;;;;;;7.80;100.00;98069.94;5049848;28;20219;-62
2021/11/13 10:53:37;;;;;;;13.70;12.30;;;;;;;7.84;100.00;98067.97;5063531;28;20215;-62
2021/11/13 10:56:08;;;;;;;14.63;12.93;;;;;;;7.86;100.00;98071.34;5059261;28;20220;-62
2021/11/13 10:58:37;;;;;;;13.47;11.97;;;;;;;7.87;100.00;98059.88;5060155;28;20213;-63
2021/11/13 11:01:07;;;;;;;14.23;12.10;;;;;;;7.85;100.00;98049.44;5064322;28;20222;-62
2021/11/13 11:03:37;;;;;;;15.23;13.63;;;;;;;7.89;100.00;98058.03;5042736;28;20216;-63
2021/11/13 11:06:05;;;;;;;13.20;11.63;;;;;;;7.85;100.00;98062.59;5051372;28;20212;-63
2021/11/13 11:08:33;;;;;;;15.03;12.77;;;;;;;7.79;100.00;98059.50;5058709;28;20212;-63
2021/11/13 11:11:01;;;;;;;12.43;11.07;;;;;;;7.75;100.00;98061.47;5056362;28;20243;-63
2021/11/13 11:13:47;;;;;;;14.20;12.70;;;;;;;7.73;100.00;98057.22;5056394;28;20212;-62
2021/11/13 11:16:26;;;;;;;13.87;12.30;;;;;;;7.69;100.00;98058.34;5056971;28;20218;-62
2021/11/13 11:18:57;;;;;;;14.83;12.70;;;;;;;7.60;100.00;98053.63;5057116;28;20297;-63